Time;durP1;ratioP1;P1;durP2;ratioP2;P2;SDS_P1;SDS_P2;PMS_P1;PMS_P2;Temp;Humidity;BMP_temperature;BMP_pressure;BME280_temperature;BME280_humidity;BME280_pressure;Samples;Min_cycle;Max_cycle;Signal;HPM_P1;HPM_P2
2022/01/26 00:00:42;;;;;;;124.20;57.67;;;;;;;0.39;100.00;100008.22;2089419;28;20218;-74
2022/01/26 00:05:49;;;;;;;112.63;54.90;;;;;;;0.43;100.00;100023.34;2090362;28;20229;-74
2022/01/26 00:06:53;;;;;;;122.88;57.30;;;;;;;0.41;100.00;100022.75;2089887;28;20603;-75
2022/01/26 00:07:55;;;;;;;111.75;53.60;;;;;;;0.38;100.00;100010.03;2090324;28;20625;-74
2022/01/26 00:08:59;;;;;;;121.75;56.05;;;;;;;0.37;100.00;100016.31;2090163;28;20218;-74
2022/01/26 00:10:01;;;;;;;111.82;55.22;;;;;;;0.39;100.00;100022.16;2090146;28;20653;-74
2022/01/26 00:11:06;;;;;;;122.45;56.53;;;;;;;0.35;100.00;100013.09;2090158;28;20192;-75
2022/01/26 00:12:14;;;;;;;122.53;57.03;;;;;;;0.39;100.00;100010.84;2090052;28;20191;-74
2022/01/26 00:13:17;;;;;;;110.57;55.33;;;;;;;0.38;100.00;100011.84;2089473;28;20195;-75
2022/01/26 00:14:21;;;;;;;116.70;54.92;;;;;;;0.40;100.00;100007.19;2081486;28;20594;-74
2022/01/26 00:15:24;;;;;;;121.50;56.95;;;;;;;0.40;100.00;100008.00;2081257;28;20208;-74
2022/01/26 00:16:28;;;;;;;116.95;53.03;;;;;;;0.41;100.00;100003.56;2089571;28;20584;-74
2022/01/26 00:17:32;;;;;;;119.78;55.08;;;;;;;0.39;100.00;100016.09;2090264;28;20187;-74
2022/01/26 00:18:38;;;;;;;119.28;54.90;;;;;;;0.40;100.00;100009.81;2090050;28;20714;-74
2022/01/26 00:19:51;;;;;;;113.93;53.55;;;;;;;0.43;100.00;100006.78;2090354;28;20191;-74
2022/01/26 00:20:53;;;;;;;113.18;54.40;;;;;;;0.38;100.00;100011.84;2089561;28;20195;-74
2022/01/26 00:21:57;;;;;;;115.38;54.42;;;;;;;0.38;100.00;100012.66;2089799;28;20206;-74
2022/01/26 00:23:10;;;;;;;119.32;55.55;;;;;;;0.41;100.00;100007.00;2081684;28;20682;-74
2022/01/26 00:25:43;;;;;;;109.25;54.03;;;;;;;0.44;100.00;100003.97;2087339;28;20198;-74
2022/01/26 00:27:07;;;;;;;118.95;53.97;;;;;;;0.45;100.00;100013.47;2090754;28;20199;-74
2022/01/26 00:28:32;;;;;;;112.85;53.53;;;;;;;0.44;100.00;100006.59;2091107;28;20676;-74
2022/01/26 00:29:41;;;;;;;109.40;53.15;;;;;;;0.44;100.00;100022.34;2091834;28;20262;-74
2022/01/26 00:38:58;;;;;;;115.07;52.25;;;;;;;0.48;100.00;100014.84;2085409;28;20657;-74
2022/01/26 00:40:06;;;;;;;114.13;54.30;;;;;;;0.49;100.00;100006.75;2090996;28;20634;-75
2022/01/26 00:41:13;;;;;;;105.78;50.78;;;;;;;0.45;100.00;100016.09;2091620;28;20180;-75
2022/01/26 00:42:15;;;;;;;115.72;54.22;;;;;;;0.48;100.00;100006.97;2091133;28;20416;-75
2022/01/26 00:43:22;;;;;;;105.10;54.42;;;;;;;0.47;100.00;100010.63;2082579;28;20187;-75
2022/01/26 00:44:34;;;;;;;107.70;53.63;;;;;;;0.54;100.00;100021.91;2083255;28;20232;-75
2022/01/26 00:45:44;;;;;;;109.35;53.33;;;;;;;0.52;100.00;100016.03;2090838;28;20193;-75
2022/01/26 00:46:49;;;;;;;108.55;52.22;;;;;;;0.52;100.00;100018.66;2091364;28;20206;-75
2022/01/26 00:47:57;;;;;;;98.57;50.67;;;;;;;0.55;100.00;100019.06;2091313;28;20190;-75
2022/01/26 00:49:01;;;;;;;103.90;51.78;;;;;;;0.55;100.00;100018.28;2091181;28;20207;-75
2022/01/26 00:50:07;;;;;;;116.65;54.80;;;;;;;0.55;100.00;100021.69;2082190;28;20672;-75
2022/01/26 00:51:16;;;;;;;110.57;53.10;;;;;;;0.56;100.00;100018.06;2090409;28;20176;-75
2022/01/26 00:52:27;;;;;;;102.43;51.03;;;;;;;0.51;100.00;100020.47;2091406;28;20180;-75
2022/01/26 00:53:36;;;;;;;112.65;51.67;;;;;;;0.53;100.00;100026.34;2091222;28;20203;-74
2022/01/26 00:54:38;;;;;;;104.28;48.97;;;;;;;0.58;100.00;100023.09;2091346;28;20198;-75
2022/01/26 00:55:41;;;;;;;106.57;50.38;;;;;;;0.57;100.00;100027.53;2090847;28;20621;-75
2022/01/26 00:56:43;;;;;;;98.35;49.03;;;;;;;0.54;100.00;100017.47;2082642;28;20191;-75
2022/01/26 00:57:46;;;;;;;114.18;53.10;;;;;;;0.61;100.00;100020.06;2082704;28;20654;-74
2022/01/26 00:58:54;;;;;;;104.65;50.92;;;;;;;0.59;100.00;100019.47;2090935;28;20200;-74
2022/01/26 00:59:59;;;;;;;99.07;50.45;;;;;;;0.57;100.00;100022.28;2090518;28;20225;-75
2022/01/26 01:01:05;;;;;;;93.82;51.78;;;;;;;0.54;100.00;100020.09;2090710;28;20238;-74
2022/01/26 01:02:08;;;;;;;104.32;52.13;;;;;;;0.61;100.00;100016.63;2091367;28;20175;-74
2022/01/26 01:03:15;;;;;;;101.57;51.67;;;;;;;0.52;100.00;100011.63;2091612;28;20249;-75
2022/01/26 01:04:18;;;;;;;110.57;52.53;;;;;;;0.53;100.00;100015.06;2090623;28;20210;-75
2022/01/26 01:05:29;;;;;;;110.80;53.17;;;;;;;0.53;100.00;100021.09;2090808;28;20274;-75
2022/01/26 01:06:40;;;;;;;102.32;50.70;;;;;;;0.51;100.00;100015.22;2090530;28;20641;-75
2022/01/26 01:07:47;;;;;;;105.80;52.25;;;;;;;0.54;100.00;100014.84;2090679;28;20547;-74
2022/01/26 01:08:54;;;;;;;103.78;51.90;;;;;;;0.58;100.00;100025.72;2090526;28;20206;-75
2022/01/26 01:09:59;;;;;;;96.85;52.10;;;;;;;0.54;100.00;100011.41;2090707;28;20217;-75
2022/01/26 01:11:02;;;;;;;102.32;51.97;;;;;;;0.54;100.00;100021.91;2090809;28;20207;-75
2022/01/26 01:12:06;;;;;;;106.43;52.35;;;;;;;0.56;100.00;100015.44;2090656;28;20191;-75
2022/01/26 01:13:16;;;;;;;102.25;51.70;;;;;;;0.57;100.00;100008.34;2091124;28;20206;-75
2022/01/26 01:14:21;;;;;;;99.43;52.75;;;;;;;0.56;100.00;100012.81;2090952;28;20191;-75
2022/01/26 01:15:25;;;;;;;102.03;50.95;;;;;;;0.59;100.00;100013.41;2083189;28;20206;-75
2022/01/26 01:16:29;;;;;;;108.97;52.90;;;;;;;0.61;100.00;100000.88;2090638;28;20186;-75
2022/01/26 01:17:37;;;;;;;102.25;51.50;;;;;;;0.59;100.00;100002.91;2090857;28;20290;-75
2022/01/26 01:18:46;;;;;;;102.65;50.65;;;;;;;0.64;100.00;100003.91;2090997;28;20266;-75
2022/01/26 01:20:06;;;;;;;103.78;49.25;;;;;;;0.65;100.00;99996.81;2090754;28;20195;-75
2022/01/26 01:21:51;;;;;;;109.53;50.58;;;;;;;0.64;100.00;100008.34;2090210;28;20202;-75
2022/01/26 01:22:57;;;;;;;101.60;50.17;;;;;;;0.65;100.00;100000.25;2091097;28;20191;-75
2022/01/26 01:24:38;;;;;;;108.25;50.92;;;;;;;0.68;100.00;100006.91;2098797;28;20281;-75
2022/01/26 01:26:11;;;;;;;99.13;50.33;;;;;;;0.69;100.00;99998.81;2093897;28;20541;-75
2022/01/26 01:28:56;;;;;;;95.68;48.35;;;;;;;0.64;100.00;100003.91;2088907;28;20206;-75
2022/01/26 01:30:07;;;;;;;95.95;48.92;;;;;;;0.61;100.00;99990.34;2091097;28;20195;-75
2022/01/26 01:31:14;;;;;;;96.97;50.90;;;;;;;0.67;100.00;99989.53;2091218;28;20176;-75
2022/01/26 01:32:31;;;;;;;93.25;48.75;;;;;;;0.67;100.00;99989.53;2091260;28;20179;-75
2022/01/26 01:33:38;;;;;;;95.75;48.05;;;;;;;0.62;100.00;99981.50;2091065;28;20179;-75
2022/01/26 01:34:46;;;;;;;99.10;49.53;;;;;;;0.59;100.00;99971.38;2091143;28;20184;-75
2022/01/26 01:35:48;;;;;;;96.53;48.83;;;;;;;0.56;100.00;99976.03;2090322;28;20821;-75
2022/01/26 01:36:53;;;;;;;87.40;47.55;;;;;;;0.60;100.00;99988.75;2090114;28;20222;-75
2022/01/26 01:37:58;;;;;;;98.78;49.53;;;;;;;0.59;100.00;99985.31;2090185;28;20736;-75
2022/01/26 01:39:02;;;;;;;98.82;49.25;;;;;;;0.65;100.00;99996.81;2090425;28;20219;-74
2022/01/26 01:40:10;;;;;;;101.78;49.80;;;;;;;0.64;100.00;99989.97;2090430;28;20636;-75
2022/01/26 01:41:15;;;;;;;100.00;49.53;;;;;;;0.66;100.00;99998.44;2090744;28;20210;-74
2022/01/26 01:42:22;;;;;;;89.45;47.85;;;;;;;0.64;100.00;99996.03;2082640;28;20207;-74
2022/01/26 01:43:28;;;;;;;91.72;50.15;;;;;;;0.61;100.00;99990.34;2082624;28;20545;-74
2022/01/26 01:44:29;;;;;;;98.90;49.60;;;;;;;0.64;100.00;99996.03;2082718;28;20610;-74
2022/01/26 01:45:33;;;;;;;94.18;48.78;;;;;;;0.70;100.00;99992.56;2082108;28;20682;-74
2022/01/26 01:46:41;;;;;;;94.60;48.08;;;;;;;0.63;100.00;100004.13;2090486;28;20291;-74
2022/01/26 01:47:47;;;;;;;93.18;49.83;;;;;;;0.66;100.00;99995.81;2090941;28;20199;-75
2022/01/26 01:48:53;;;;;;;87.38;46.92;;;;;;;0.62;100.00;99992.81;2090883;28;20214;-74
2022/01/26 01:49:55;;;;;;;85.72;46.70;;;;;;;0.63;100.00;100006.72;2090705;28;20202;-74
2022/01/26 01:51:00;;;;;;;88.78;46.88;;;;;;;0.61;100.00;99992.97;2081156;28;20693;-74
2022/01/26 01:52:04;;;;;;;86.05;45.47;;;;;;;0.60;100.00;99991.38;2082371;28;20669;-74
2022/01/26 01:53:07;;;;;;;94.00;48.22;;;;;;;0.60;100.00;99999.25;2082207;28;20200;-75
2022/01/26 01:54:15;;;;;;;83.28;45.75;;;;;;;0.58;100.00;99986.34;2090414;28;20677;-74
2022/01/26 01:55:26;;;;;;;88.38;47.00;;;;;;;0.59;100.00;99997.66;2090240;28;20568;-74
2022/01/26 01:56:28;;;;;;;87.47;45.65;;;;;;;0.63;100.00;99983.91;2083602;28;20188;-75
2022/01/26 01:57:34;;;;;;;81.47;45.40;;;;;;;0.61;100.00;99991.19;2082470;28;20206;-75
2022/01/26 01:58:40;;;;;;;86.70;45.10;;;;;;;0.61;100.00;99990.34;2090503;28;20305;-75
2022/01/26 01:59:43;;;;;;;87.55;44.17;;;;;;;0.57;100.00;99984.72;2090215;28;20195;-75
2022/01/26 02:00:47;;;;;;;82.97;44.08;;;;;;;0.57;100.00;99982.91;2090315;28;20192;-75
2022/01/26 02:01:54;;;;;;;78.95;43.22;;;;;;;0.62;100.00;99977.03;2090789;28;20287;-75
2022/01/26 02:03:01;;;;;;;78.05;44.13;;;;;;;0.54;100.00;99983.34;2090050;28;20199;-75
2022/01/26 02:04:03;;;;;;;77.65;43.83;;;;;;;0.54;100.00;99983.34;2090267;28;20266;-75
2022/01/26 02:05:09;;;;;;;78.68;44.38;;;;;;;0.54;100.00;99979.91;2090338;28;20576;-75
2022/01/26 02:06:10;;;;;;;72.50;41.33;;;;;;;0.52;100.00;99987.16;2089777;28;20194;-74
2022/01/26 02:07:13;;;;;;;74.73;41.77;;;;;;;0.51;100.00;99975.03;2090885;28;20656;-75
2022/01/26 02:08:18;;;;;;;78.80;42.75;;;;;;;0.52;100.00;99977.50;2090154;28;20210;-75
2022/01/26 02:09:22;;;;;;;75.68;42.03;;;;;;;0.51;100.00;99986.34;2090342;28;20229;-75
2022/01/26 02:10:28;;;;;;;71.22;42.03;;;;;;;0.47;100.00;99985.16;2089977;28;20221;-75
2022/01/26 02:11:32;;;;;;;73.80;42.50;;;;;;;0.50;100.00;99981.31;2090384;28;20240;-75
2022/01/26 02:12:45;;;;;;;77.57;42.47;;;;;;;0.48;100.00;99983.34;2090721;28;20195;-75
2022/01/26 02:13:54;;;;;;;69.32;40.22;;;;;;;0.48;100.00;99970.22;2091014;28;20258;-75
2022/01/26 02:15:06;;;;;;;77.15;41.28;;;;;;;0.46;100.00;99980.94;2090061;28;20207;-75
2022/01/26 02:16:18;;;;;;;72.82;40.47;;;;;;;0.45;100.00;99979.31;2090439;28;20233;-75
2022/01/26 02:17:45;;;;;;;64.28;39.13;;;;;;;0.45;100.00;99992.47;2089979;28;20606;-75
2022/01/26 02:19:10;;;;;;;78.10;43.08;;;;;;;0.44;100.00;99980.34;2084933;28;20252;-75
2022/01/26 02:50:33;;;;;;;71.45;41.40;;;;;;;0.47;100.00;99964.16;2090364;28;20179;-75
2022/01/26 02:51:57;;;;;;;70.43;40.30;;;;;;;0.49;100.00;99963.97;2090281;28;20218;-75
2022/01/26 02:53:21;;;;;;;74.45;42.03;;;;;;;0.52;100.00;99953.88;2089745;28;20203;-75
2022/01/26 02:55:54;;;;;;;74.53;42.85;;;;;;;0.50;100.00;99963.75;2090387;28;20731;-75
2022/01/26 02:57:10;;;;;;;70.65;42.00;;;;;;;0.49;100.00;99956.88;2089204;28;20302;-75
2022/01/26 03:00:14;;;;;;;74.07;42.15;;;;;;;0.53;100.00;99957.28;2074973;28;20256;-76
2022/01/26 03:02:41;;;;;;;78.00;43.55;;;;;;;0.48;100.00;99968.41;2073860;28;20207;-75
2022/01/26 03:03:49;;;;;;;76.88;44.53;;;;;;;0.50;100.00;99965.56;2090441;28;20175;-75
2022/01/26 03:04:54;;;;;;;75.53;43.67;;;;;;;0.46;100.00;99951.25;2090540;28;20175;-75
2022/01/26 03:06:04;;;;;;;79.88;44.13;;;;;;;0.45;100.00;99955.69;2089917;28;20657;-74
2022/01/26 03:07:16;;;;;;;72.55;43.88;;;;;;;0.47;100.00;99955.50;2090022;28;20210;-75
2022/01/26 03:08:28;;;;;;;78.43;43.30;;;;;;;0.54;100.00;99964.16;2083128;28;20591;-74
2022/01/26 03:09:34;;;;;;;75.57;44.10;;;;;;;0.52;100.00;99950.41;2090274;28;20663;-74
2022/01/26 03:10:45;;;;;;;74.13;44.47;;;;;;;0.58;100.00;99957.47;2090658;28;20225;-74
2022/01/26 03:11:47;;;;;;;74.53;43.67;;;;;;;0.55;100.00;99956.06;2090724;28;20203;-75
2022/01/26 03:12:57;;;;;;;77.35;43.40;;;;;;;0.55;100.00;99953.44;2090477;28;20187;-74
2022/01/26 03:14:09;;;;;;;78.93;43.58;;;;;;;0.53;100.00;99946.78;2089428;28;20290;-74
2022/01/26 03:15:17;;;;;;;79.88;43.90;;;;;;;0.50;100.00;99948.00;2090255;28;20183;-74
2022/01/26 03:16:28;;;;;;;75.10;43.22;;;;;;;0.49;100.00;99943.75;2089596;28;20210;-74
2022/01/26 03:17:51;;;;;;;70.85;41.63;;;;;;;0.52;100.00;99946.00;2089987;28;20564;-75
2022/01/26 03:19:02;;;;;;;78.53;44.65;;;;;;;0.52;100.00;99948.63;2089738;28;20234;-75
2022/01/26 03:20:12;;;;;;;67.78;41.47;;;;;;;0.51;100.00;99951.41;2089890;28;20535;-75
2022/01/26 03:21:20;;;;;;;76.80;42.70;;;;;;;0.52;100.00;99951.25;2089769;28;20227;-74
2022/01/26 03:29:26;;;;;;;79.22;43.88;;;;;;;0.60;100.00;99952.00;2089947;28;20171;-75
2022/01/26 03:30:37;;;;;;;76.05;42.90;;;;;;;0.59;100.00;99955.63;2089483;28;20207;-74
2022/01/26 03:34:19;;;;;;;71.50;41.70;;;;;;;0.67;100.00;99955.41;2089927;28;20178;-75
2022/01/26 03:35:31;;;;;;;74.00;43.53;;;;;;;0.63;100.00;99959.47;2090527;28;20186;-74
2022/01/26 03:36:46;;;;;;;70.95;41.72;;;;;;;0.60;100.00;99958.03;2089274;28;20230;-75
2022/01/26 03:37:52;;;;;;;76.53;43.00;;;;;;;0.63;100.00;99962.09;2089674;28;20233;-75
2022/01/26 03:39:06;;;;;;;78.15;44.40;;;;;;;0.63;100.00;99960.28;2089792;28;20723;-74
2022/01/26 03:40:14;;;;;;;71.90;43.00;;;;;;;0.59;100.00;99958.25;2089852;28;20221;-74
2022/01/26 03:41:33;;;;;;;67.25;40.97;;;;;;;0.56;100.00;99949.78;2090335;28;20262;-74
2022/01/26 03:42:41;;;;;;;78.78;44.17;;;;;;;0.56;100.00;99954.25;2089410;28;20689;-75
2022/01/26 03:43:46;;;;;;;74.65;42.22;;;;;;;0.59;100.00;99953.00;2089708;28;20688;-74
2022/01/26 03:44:49;;;;;;;81.75;43.47;;;;;;;0.52;100.00;99946.00;2090324;28;20191;-75
2022/01/26 03:45:50;;;;;;;71.63;42.15;;;;;;;0.52;100.00;99948.63;2090243;28;20195;-74
2022/01/26 03:46:52;;;;;;;72.73;43.27;;;;;;;0.52;100.00;99940.72;2090381;28;20221;-74
2022/01/26 03:47:55;;;;;;;74.65;44.47;;;;;;;0.51;100.00;99939.09;2090205;28;20199;-74
2022/01/26 03:49:01;;;;;;;77.90;44.50;;;;;;;0.52;100.00;99943.38;2089553;28;20748;-74
2022/01/26 03:50:04;;;;;;;80.03;43.90;;;;;;;0.53;100.00;99944.97;2081642;28;20207;-75
2022/01/26 03:51:07;;;;;;;81.43;43.58;;;;;;;0.52;100.00;99940.72;2081091;28;20277;-74
2022/01/26 03:52:10;;;;;;;77.30;45.55;;;;;;;0.53;100.00;99939.72;2089906;28;20172;-74
2022/01/26 03:53:13;;;;;;;83.22;45.17;;;;;;;0.54;100.00;99943.94;2089721;28;20290;-74
2022/01/26 03:54:16;;;;;;;75.50;44.20;;;;;;;0.52;100.00;99946.00;2089295;28;20232;-74
2022/01/26 03:55:17;;;;;;;73.35;44.15;;;;;;;0.52;100.00;99935.50;2090439;28;20190;-74
2022/01/26 03:56:23;;;;;;;78.43;44.05;;;;;;;0.52;100.00;99935.50;2090124;28;20207;-74
2022/01/26 03:57:26;;;;;;;82.43;44.83;;;;;;;0.54;100.00;99945.78;2090182;28;20211;-74
2022/01/26 03:58:32;;;;;;;70.97;42.40;;;;;;;0.53;100.00;99942.34;2090092;28;20244;-75
2022/01/26 03:59:33;;;;;;;78.00;45.35;;;;;;;0.53;100.00;99941.53;2089929;28;20203;-75
2022/01/26 04:00:36;;;;;;;77.00;44.27;;;;;;;0.51;100.00;99954.84;2089621;28;20191;-75
2022/01/26 04:01:38;;;;;;;85.82;45.88;;;;;;;0.50;100.00;99945.38;2091529;28;20225;-74
2022/01/26 04:02:46;;;;;;;76.20;44.08;;;;;;;0.49;100.00;99946.38;2091031;28;20203;-74
2022/01/26 04:03:49;;;;;;;77.75;45.47;;;;;;;0.49;100.00;99945.59;2091337;28;20202;-74
2022/01/26 04:05:00;;;;;;;79.18;44.58;;;;;;;0.47;100.00;99952.88;2091299;28;20249;-74
2022/01/26 04:06:02;;;;;;;73.75;43.83;;;;;;;0.45;100.00;99955.69;2090844;28;20199;-75
2022/01/26 04:07:08;;;;;;;83.25;48.80;;;;;;;0.42;100.00;99952.66;2091993;28;20508;-75
2022/01/26 04:08:14;;;;;;;82.25;46.95;;;;;;;0.38;100.00;99952.28;2091708;28;20221;-75
2022/01/26 04:09:19;;;;;;;82.55;47.45;;;;;;;0.39;100.00;99956.53;2091350;28;20260;-75
2022/01/26 04:10:34;;;;;;;79.25;47.80;;;;;;;0.41;100.00;99946.63;2091071;28;20187;-75
2022/01/26 04:11:42;;;;;;;84.15;47.33;;;;;;;0.39;100.00;99945.22;2091740;28;20197;-75
2022/01/26 04:12:47;;;;;;;82.43;48.45;;;;;;;0.41;100.00;99943.19;2090958;28;20659;-75
2022/01/26 04:13:52;;;;;;;91.22;47.95;;;;;;;0.44;100.00;99942.78;2082776;28;20210;-74
2022/01/26 04:14:59;;;;;;;75.95;45.03;;;;;;;0.41;100.00;99944.00;2091043;28;20227;-75
2022/01/26 04:16:02;;;;;;;90.75;47.40;;;;;;;0.40;100.00;99939.75;2090906;28;20206;-74
2022/01/26 04:17:09;;;;;;;86.72;46.70;;;;;;;0.36;100.00;99930.69;2091030;28;20219;-75
2022/01/26 04:18:19;;;;;;;82.13;45.53;;;;;;;0.44;100.00;99935.72;2090848;28;20296;-74
2022/01/26 04:19:28;;;;;;;82.75;46.20;;;;;;;0.41;100.00;99932.69;2091021;28;20189;-74
2022/01/26 04:20:35;;;;;;;85.93;46.10;;;;;;;0.41;100.00;99936.13;2091569;28;20167;-76
2022/01/26 04:21:56;;;;;;;86.32;46.45;;;;;;;0.42;100.00;99939.53;2091032;28;20233;-75
2022/01/26 04:23:09;;;;;;;81.75;45.72;;;;;;;0.38;100.00;99939.16;2085757;28;20207;-75
2022/01/26 04:24:19;;;;;;;84.65;46.60;;;;;;;0.40;100.00;99936.31;2091132;28;20242;-75
2022/01/26 04:25:26;;;;;;;83.97;45.35;;;;;;;0.40;100.00;99941.56;2091230;28;20560;-75
2022/01/26 04:26:37;;;;;;;84.88;46.03;;;;;;;0.41;100.00;99933.50;2091214;28;20236;-75
2022/01/26 04:27:46;;;;;;;87.75;47.13;;;;;;;0.42;100.00;99940.34;2090915;28;20202;-75
2022/01/26 04:28:52;;;;;;;83.70;46.08;;;;;;;0.42;100.00;99940.34;2091400;28;20175;-75
2022/01/26 04:29:55;;;;;;;84.82;45.92;;;;;;;0.41;100.00;99933.50;2091728;28;20171;-74
2022/01/26 04:30:57;;;;;;;86.75;47.17;;;;;;;0.43;100.00;99941.97;2091562;28;20194;-74
2022/01/26 04:32:03;;;;;;;79.80;46.35;;;;;;;0.43;100.00;99944.59;2091028;28;20245;-75
2022/01/26 04:33:07;;;;;;;89.15;46.53;;;;;;;0.45;100.00;99936.53;2090977;28;20198;-75
2022/01/26 04:34:12;;;;;;;98.10;48.00;;;;;;;0.44;100.00;99935.72;2090726;28;20258;-75
2022/01/26 04:35:15;;;;;;;85.18;45.65;;;;;;;0.40;100.00;99939.75;2091053;28;20191;-74
2022/01/26 04:36:23;;;;;;;91.00;45.95;;;;;;;0.40;100.00;99952.88;2090361;28;20226;-75
2022/01/26 04:37:34;;;;;;;88.47;46.85;;;;;;;0.42;100.00;99948.22;2083679;28;20261;-74
2022/01/26 04:38:43;;;;;;;87.13;46.15;;;;;;;0.42;100.00;99942.97;2091253;28;20187;-75
2022/01/26 04:39:53;;;;;;;81.53;45.20;;;;;;;0.47;100.00;99948.41;2091459;28;20221;-75
2022/01/26 04:41:13;;;;;;;90.93;46.85;;;;;;;0.45;100.00;99944.41;2090764;28;20657;-75
2022/01/26 04:42:20;;;;;;;93.22;47.80;;;;;;;0.45;100.00;99941.78;2091039;28;20190;-75
2022/01/26 04:43:26;;;;;;;91.40;48.15;;;;;;;0.43;100.00;99947.22;2091486;28;20207;-75
2022/01/26 04:44:34;;;;;;;86.55;46.63;;;;;;;0.39;100.00;99942.59;2091535;28;20202;-74
2022/01/26 04:45:38;;;;;;;80.93;44.40;;;;;;;0.42;100.00;99945.59;2090569;28;20203;-75
2022/01/26 04:46:44;;;;;;;84.60;44.78;;;;;;;0.40;100.00;99937.13;2083071;28;20309;-74
2022/01/26 04:47:46;;;;;;;87.10;44.50;;;;;;;0.40;100.00;99933.69;2090869;28;20191;-75
2022/01/26 04:48:52;;;;;;;88.60;45.70;;;;;;;0.40;100.00;99933.69;2091316;28;20198;-75
2022/01/26 04:49:54;;;;;;;84.45;46.78;;;;;;;0.39;100.00;99934.72;2090940;28;20248;-74
2022/01/26 04:50:57;;;;;;;78.70;41.10;;;;;;;0.34;100.00;99937.16;2090183;28;20198;-74
2022/01/26 04:52:01;;;;;;;78.70;43.97;;;;;;;0.33;100.00;99931.09;2091390;28;20175;-75
2022/01/26 04:53:04;;;;;;;82.22;44.53;;;;;;;0.29;100.00;99927.28;2091212;28;20218;-75
2022/01/26 04:54:07;;;;;;;83.30;44.13;;;;;;;0.29;100.00;99924.66;2091521;28;20198;-75
2022/01/26 04:55:11;;;;;;;85.45;43.05;;;;;;;0.27;100.00;99930.13;2090650;28;20242;-75
2022/01/26 04:56:14;;;;;;;91.10;46.10;;;;;;;0.28;100.00;99923.06;2090870;28;20195;-75
2022/01/26 04:57:17;;;;;;;93.35;46.08;;;;;;;0.28;100.00;99934.34;2091369;28;20218;-75
2022/01/26 04:58:25;;;;;;;96.35;47.40;;;;;;;0.31;100.00;99932.31;2091495;28;20278;-75
2022/01/26 04:59:30;;;;;;;97.15;47.05;;;;;;;0.28;100.00;99926.47;2090729;28;20203;-75
2022/01/26 05:00:33;;;;;;;85.65;46.38;;;;;;;0.28;100.00;99921.25;2083216;28;20208;-75
2022/01/26 05:01:38;;;;;;;95.40;48.95;;;;;;;0.27;100.00;99932.75;2082739;28;20667;-76
2022/01/26 05:02:45;;;;;;;91.10;46.90;;;;;;;0.26;100.00;99935.56;2090757;28;20188;-75
2022/01/26 05:03:47;;;;;;;96.80;48.67;;;;;;;0.23;100.00;99922.84;2090912;28;20653;-75
2022/01/26 05:04:49;;;;;;;88.75;45.75;;;;;;;0.25;100.00;99916.38;2090783;28;20719;-75
2022/01/26 05:05:55;;;;;;;93.47;49.08;;;;;;;0.23;100.00;99928.09;2090861;28;20218;-75
2022/01/26 05:07:01;;;;;;;92.45;46.28;;;;;;;0.20;100.00;99941.66;2082745;28;20254;-75
2022/01/26 05:08:02;;;;;;;102.28;49.03;;;;;;;0.20;100.00;99926.72;2082327;28;20290;-74
2022/01/26 05:09:06;;;;;;;90.88;47.10;;;;;;;0.16;100.00;99929.94;2082406;28;20657;-74
2022/01/26 05:10:08;;;;;;;87.60;46.85;;;;;;;0.14;100.00;99926.72;2083011;28;20203;-74
2022/01/26 05:11:15;;;;;;;94.28;45.85;;;;;;;0.13;100.00;99935.63;2082302;28;20619;-74
2022/01/26 05:12:19;;;;;;;98.35;47.30;;;;;;;0.08;100.00;99933.59;2082105;28;20168;-75
2022/01/26 05:13:21;;;;;;;97.60;47.40;;;;;;;0.11;100.00;99933.19;2082397;28;20192;-75
2022/01/26 05:14:28;;;;;;;105.30;50.10;;;;;;;0.07;100.00;99923.31;2082970;28;20245;-76
2022/01/26 05:15:31;;;;;;;106.68;49.33;;;;;;;0.13;100.00;99909.38;2082264;28;20205;-75
2022/01/26 05:16:33;;;;;;;110.60;50.60;;;;;;;0.14;100.00;99924.09;2082314;28;20274;-76
2022/01/26 05:17:38;;;;;;;111.70;52.10;;;;;;;0.14;100.00;99924.91;2082867;28;20207;-75
2022/01/26 05:18:42;;;;;;;109.47;48.97;;;;;;;0.12;100.00;99923.50;2083163;28;20188;-75
2022/01/26 05:19:45;;;;;;;112.70;51.05;;;;;;;0.09;100.00;99919.50;2083275;28;20221;-76
2022/01/26 05:20:47;;;;;;;109.75;50.50;;;;;;;0.07;100.00;99911.00;2082516;28;20292;-75
2022/01/26 05:21:54;;;;;;;109.75;51.03;;;;;;;0.05;100.00;99920.09;2081354;28;20366;-75
2022/01/26 05:22:57;;;;;;;107.30;50.10;;;;;;;0.04;100.00;99921.09;2074853;28;20706;-75
2022/01/26 05:23:59;;;;;;;109.10;48.58;;;;;;;-0.01;100.00;99919.09;2082250;28;20601;-75
2022/01/26 05:25:02;;;;;;;111.85;49.10;;;;;;;0.01;100.00;99911.84;2082944;28;20627;-75
2022/01/26 05:26:06;;;;;;;113.82;48.20;;;;;;;0.03;100.00;99911.63;2090551;28;20661;-75
2022/01/26 05:27:12;;;;;;;117.03;48.72;;;;;;;0.06;100.00;99909.38;2082270;28;20203;-75
2022/01/26 05:28:16;;;;;;;114.25;49.25;;;;;;;0.05;100.00;99912.22;2074864;28;20620;-75
2022/01/26 05:29:18;;;;;;;115.18;49.10;;;;;;;0.05;100.00;99912.22;2082408;28;20195;-75
2022/01/26 05:30:20;;;;;;;115.25;48.30;;;;;;;0.04;100.00;99915.84;2082861;28;20199;-75
2022/01/26 05:31:24;;;;;;;122.60;48.53;;;;;;;0.05;100.00;99909.59;2082788;28;20199;-75
2022/01/26 05:32:26;;;;;;;126.75;49.67;;;;;;;0.06;100.00;99903.34;2082872;28;20192;-74
2022/01/26 05:33:28;;;;;;;112.40;47.83;;;;;;;0.08;100.00;99906.56;2083085;28;20658;-75
2022/01/26 05:34:31;;;;;;;106.55;48.15;;;;;;;0.15;100.00;99902.09;2082019;28;20613;-74
2022/01/26 05:35:37;;;;;;;115.28;52.53;;;;;;;0.10;100.00;99891.44;2074525;28;20566;-75
2022/01/26 05:36:39;;;;;;;110.90;53.17;;;;;;;0.13;100.00;99904.13;2088577;28;20230;-75
2022/01/26 05:37:46;;;;;;;117.90;53.72;;;;;;;0.13;100.00;99904.13;2090037;28;20284;-76
2022/01/26 05:38:47;;;;;;;117.65;58.25;;;;;;;0.10;100.00;99905.34;2082772;28;20296;-75
2022/01/26 05:39:53;;;;;;;113.30;54.97;;;;;;;0.16;100.00;99911.56;2082402;28;20202;-76
2022/01/26 05:41:01;;;;;;;125.53;55.67;;;;;;;0.14;100.00;99903.91;2090458;28;20577;-75
2022/01/26 05:42:05;;;;;;;120.13;54.97;;;;;;;0.16;100.00;99908.94;2091094;28;20194;-75
2022/01/26 05:43:11;;;;;;;124.13;55.85;;;;;;;0.15;100.00;99905.53;2090998;28;20191;-75
2022/01/26 05:44:17;;;;;;;122.45;55.50;;;;;;;0.20;100.00;99910.16;2090262;28;20198;-75
2022/01/26 05:45:28;;;;;;;105.13;51.42;;;;;;;0.22;100.00;99906.31;2090386;28;20202;-75
2022/01/26 05:46:37;;;;;;;121.05;51.55;;;;;;;0.23;100.00;99900.03;2090341;28;20237;-75
2022/01/26 05:47:42;;;;;;;118.72;51.83;;;;;;;0.27;100.00;99910.94;2083030;28;20203;-75
2022/01/26 05:48:49;;;;;;;120.18;52.85;;;;;;;0.21;100.00;99898.66;2090351;28;20229;-76
2022/01/26 05:49:56;;;;;;;114.68;53.47;;;;;;;0.28;100.00;99923.06;2090961;28;20198;-75
2022/01/26 05:51:06;;;;;;;128.98;54.75;;;;;;;0.23;100.00;99907.13;2090360;28;20676;-75
2022/01/26 05:52:10;;;;;;;114.00;51.22;;;;;;;0.23;100.00;99902.66;2090172;28;20206;-75
2022/01/26 05:53:16;;;;;;;121.30;51.47;;;;;;;0.24;100.00;99911.34;2082748;28;20204;-75
2022/01/26 05:54:18;;;;;;;115.53;51.25;;;;;;;0.23;100.00;99909.75;2090363;28;20191;-75
2022/01/26 05:55:23;;;;;;;122.70;51.88;;;;;;;0.28;100.00;99905.50;2090108;28;20565;-75
2022/01/26 05:56:28;;;;;;;124.50;52.10;;;;;;;0.32;100.00;99915.56;2082786;28;20204;-75
2022/01/26 05:57:35;;;;;;;114.90;50.17;;;;;;;0.34;100.00;99924.84;2090520;28;20221;-75
2022/01/26 05:58:37;;;;;;;115.32;51.08;;;;;;;0.35;100.00;99910.72;2082610;28;20207;-76
2022/01/26 05:59:40;;;;;;;121.65;52.63;;;;;;;0.39;100.00;99911.91;2081698;28;20215;-75
2022/01/26 06:00:42;;;;;;;121.95;53.28;;;;;;;0.34;100.00;99916.16;2082308;28;20235;-75
2022/01/26 06:01:46;;;;;;;116.20;52.90;;;;;;;0.32;100.00;99912.94;2081899;28;20214;-76
2022/01/26 06:02:52;;;;;;;109.03;51.80;;;;;;;0.27;100.00;99918.81;2090339;28;20195;-75
2022/01/26 06:04:01;;;;;;;121.13;56.03;;;;;;;0.24;100.00;99906.09;2091061;28;20172;-75
2022/01/26 06:05:05;;;;;;;127.82;56.08;;;;;;;0.24;100.00;99898.22;2090087;28;20237;-76